Time;durP1;ratioP1;P1;durP2;ratioP2;P2;SDS_P1;SDS_P2;PMS_P1;PMS_P2;Temp;Humidity;BMP_temperature;BMP_pressure;BME280_temperature;BME280_humidity;BME280_pressure;Samples;Min_cycle;Max_cycle;Signal;HPM_P1;HPM_P2
2021/04/22 00:01:27;;;;;;;15.38;10.55;;;;;;;;;;829039;71;32785;-77
2021/04/22 00:16:18;;;;;;;16.67;12.60;;;;;;;9.38;61.90;94747.94;829024;71;32877;-81
2021/04/22 00:31:14;;;;;;;11.22;9.58;;;;;;;9.20;62.64;94734.47;833731;71;32794;-81
2021/04/22 00:46:08;;;;;;;12.00;9.60;;;;;;;9.06;62.73;94740.56;828157;71;30071;-81
2021/04/22 01:01:33;;;;;;;16.70;11.25;;;;;;;8.91;63.67;94745.37;836483;71;32699;-82
2021/04/22 01:16:16;;;;;;;13.08;11.18;;;;;;;8.76;64.11;94752.78;827776;71;32723;-82
2021/04/22 01:31:15;;;;;;;16.75;12.68;;;;;;;8.62;64.64;94746.81;829111;70;32967;-80
2021/04/22 01:46:12;;;;;;;17.92;13.30;;;;;;;8.50;65.45;94748.19;794498;74;32523;-80
2021/04/22 02:01:15;;;;;;;16.15;12.88;;;;;;;8.42;65.61;94747.67;829425;71;32741;-80
2021/04/22 02:16:20;;;;;;;13.72;10.13;;;;;;;8.36;65.91;94745.32;827116;71;32842;-80
2021/04/22 02:31:18;;;;;;;15.32;11.40;;;;;;;8.22;66.12;94749.80;827058;71;32948;-83
2021/04/22 02:46:27;;;;;;;14.25;10.63;;;;;;;8.09;66.62;94759.52;834376;71;32806;-80
2021/04/22 03:01:45;;;;;;;13.03;10.65;;;;;;;8.00;67.15;94761.86;827805;71;31915;-80
2021/04/22 03:16:14;;;;;;;11.30;9.35;;;;;;;7.90;67.22;94757.96;827674;71;30743;-80
2021/04/22 03:31:18;;;;;;;13.22;10.35;;;;;;;7.80;67.38;94762.67;827838;71;32595;-84
2021/04/22 03:46:17;;;;;;;12.20;9.85;;;;;;;8.07;67.34;94779.09;833736;71;33201;-80
2021/04/22 04:01:10;;;;;;;15.13;10.65;;;;;;;10.16;61.25;94789.49;827783;71;30771;-74
2021/04/22 04:16:14;;;;;;;14.95;10.53;;;;;;;12.17;56.86;94796.32;826876;71;32761;-76
2021/04/22 04:31:15;;;;;;;12.88;11.57;;;;;;;13.68;53.38;94812.30;833053;71;32782;-76
2021/04/22 04:46:17;;;;;;;17.73;14.10;;;;;;;14.81;49.26;94828.80;833394;71;32736;-74
2021/04/22 05:01:14;;;;;;;20.75;16.85;;;;;;;14.69;49.07;94845.22;826518;71;33459;-75
2021/04/22 05:16:15;;;;;;;26.77;18.60;;;;;;;15.01;47.68;94847.28;827342;71;32765;-75
2021/04/22 05:31:13;;;;;;;25.12;19.45;;;;;;;15.86;46.34;94850.92;827703;71;29837;-76
2021/04/22 05:46:10;;;;;;;24.40;18.42;;;;;;;16.90;43.98;94857.12;833290;71;31115;-77
2021/04/22 06:01:14;;;;;;;17.30;15.50;;;;;;;17.41;42.53;94842.02;826340;71;32765;-77
2021/04/22 06:16:09;;;;;;;19.00;16.62;;;;;;;18.08;41.54;94855.45;833985;71;30340;-75
2021/04/22 06:31:12;;;;;;;20.92;17.05;;;;;;;19.26;39.68;94854.56;834256;71;32311;-78
2021/04/22 06:46:16;;;;;;;22.73;15.88;;;;;;;20.29;37.80;94848.77;826795;71;32715;-74
2021/04/22 07:01:14;;;;;;;18.85;15.63;;;;;;;19.99;37.18;94852.33;833202;71;32721;-76
2021/04/22 07:16:14;;;;;;;19.80;15.13;;;;;;;19.35;38.58;94852.58;827619;71;31844;-74
2021/04/22 07:31:14;;;;;;;16.85;15.10;;;;;;;20.05;36.76;94855.53;827121;71;32752;-74
2021/04/22 07:46:10;;;;;;;15.98;14.28;;;;;;;20.98;35.04;94859.28;827699;71;30066;-76
2021/04/22 08:01:22;;;;;;;18.67;14.55;;;;;;;22.23;33.50;94837.16;834964;71;30455;-79
2021/04/22 08:16:15;;;;;;;15.33;13.67;;;;;;;22.50;32.48;94818.56;826945;71;32772;-76
2021/04/22 08:31:13;;;;;;;13.27;11.93;;;;;;;23.03;31.84;94820.59;831813;71;30181;-77
2021/04/22 08:46:16;;;;;;;11.67;10.47;;;;;;;22.93;30.55;94813.37;827142;71;32659;-75
2021/04/22 09:01:41;;;;;;;7.13;6.47;;;;;;;21.77;30.84;94798.28;827521;71;29768;-76
2021/04/22 09:16:12;;;;;;;3.27;3.03;;;;;;;22.26;27.07;94786.24;812740;71;30685;-76
2021/04/22 09:31:10;;;;;;;3.13;2.93;;;;;;;22.10;26.66;94775.61;827986;71;29477;-77
2021/04/22 09:46:21;;;;;;;3.30;3.10;;;;;;;23.78;25.10;94766.72;828457;71;32716;-76
2021/04/22 10:01:10;;;;;;;24.77;22.20;;;;;;;25.39;30.24;94734.55;825027;71;29644;-75
2021/04/22 10:16:11;;;;;;;2.90;2.70;;;;;;;26.04;23.55;94728.66;833735;71;31423;-78
2021/04/22 10:31:25;;;;;;;2.97;2.77;;;;;;;26.04;22.92;94707.14;821473;71;32895;-74
2021/04/22 10:46:19;;;;;;;2.80;2.60;;;;;;;25.26;22.53;94691.68;833871;71;32806;-77
2021/04/22 11:01:38;;;;;;;2.70;2.50;;;;;;;25.50;22.80;94678.16;827233;71;33230;-75
2021/04/22 11:16:10;;;;;;;3.37;3.17;;;;;;;23.99;23.92;94675.81;827475;71;31077;-75
2021/04/22 11:31:12;;;;;;;3.97;3.50;;;;;;;23.08;24.41;94662.36;833641;71;30250;-79
2021/04/22 11:46:09;;;;;;;2.80;2.60;;;;;;;23.27;24.34;94631.41;829035;71;29774;-78
2021/04/22 12:01:15;;;;;;;4.40;2.67;;;;;;;23.57;23.42;94630.01;827215;71;32650;-76
2021/04/22 12:16:17;;;;;;;5.87;5.37;;;;;;;23.78;23.79;94591.19;827881;71;32656;-77
2021/04/22 12:31:09;;;;;;;2.70;2.50;;;;;;;24.44;25.00;94565.81;819127;71;30164;-77
2021/04/22 12:46:18;;;;;;;2.80;2.60;;;;;;;24.07;22.99;94566.73;827815;71;32799;-75
2021/04/22 13:01:19;;;;;;;2.63;2.47;;;;;;;24.01;22.46;94553.48;826993;71;32697;-78
2021/04/22 13:16:22;;;;;;;2.50;2.40;;;;;;;23.88;22.20;94528.86;826869;71;33590;-77
2021/04/22 13:31:18;;;;;;;2.23;2.13;;;;;;;23.84;21.43;94518.68;827697;71;30442;-77
2021/04/22 13:46:14;;;;;;;2.20;2.10;;;;;;;22.93;21.78;94503.47;827195;71;30286;-74
2021/04/22 14:01:24;;;;;;;3.33;2.93;;;;;;;22.72;24.08;94486.62;833225;71;32794;-76
2021/04/22 14:16:17;;;;;;;3.03;2.73;;;;;;;22.38;23.77;94481.25;826756;71;32730;-78
2021/04/22 14:31:18;;;;;;;3.13;2.80;;;;;;;22.14;23.67;94479.77;826434;71;32787;-78
2021/04/22 14:46:15;;;;;;;2.80;2.60;;;;;;;21.40;24.52;94476.95;826925;71;32721;-76
2021/04/22 15:01:44;;;;;;;3.12;2.92;;;;;;;21.15;25.91;94472.55;827970;71;30339;-77
2021/04/22 15:16:09;;;;;;;3.12;2.92;;;;;;;21.08;26.17;94481.17;827664;71;30856;-76
2021/04/22 15:31:18;;;;;;;3.00;2.80;;;;;;;21.09;26.55;94493.41;826877;71;33472;-77
2021/04/22 15:46:08;;;;;;;3.27;3.02;;;;;;;20.20;26.83;94479.11;827898;71;29810;-76
2021/04/22 16:01:27;;;;;;;2.90;2.70;;;;;;;19.52;28.40;94477.56;823113;71;33563;-75
2021/04/22 16:16:13;;;;;;;4.20;3.37;;;;;;;18.63;29.97;94460.89;827369;71;33453;-77
2021/04/22 16:31:09;;;;;;;3.95;3.60;;;;;;;18.09;30.90;94474.04;827521;71;30156;-77
2021/04/22 16:46:09;;;;;;;7.53;3.45;;;;;;;17.56;31.66;94467.89;828485;71;30126;-78
2021/04/22 17:01:08;;;;;;;4.53;2.95;;;;;;;16.91;33.10;94468.48;828778;71;29573;-77
2021/04/22 17:16:11;;;;;;;3.65;3.35;;;;;;;16.45;35.09;94484.09;828918;71;30240;-83
2021/04/22 17:31:10;;;;;;;3.50;3.20;;;;;;;15.91;35.84;94512.02;828501;71;30879;-85
2021/04/22 17:46:11;;;;;;;5.12;2.95;;;;;;;15.47;37.39;94546.35;828802;71;29815;-86
2021/04/22 18:01:16;;;;;;;4.17;2.90;;;;;;;14.96;40.25;94524.52;829236;71;33186;-89
2021/04/22 18:16:35;;;;;;;3.40;3.10;;;;;;;14.64;42.72;94583.91;829815;71;32666;-88
2021/04/22 18:31:35;;;;;;;4.83;3.17;;;;;;;14.18;45.46;94612.37;835112;71;32759;-86
2021/04/22 18:46:24;;;;;;;3.15;2.95;;;;;;;13.89;46.94;94624.79;826461;70;32817;-86
2021/04/22 19:01:19;;;;;;;3.30;3.10;;;;;;;13.89;46.84;94626.11;835158;71;32656;-88
2021/04/22 19:16:14;;;;;;;4.90;4.50;;;;;;;13.84;47.29;94615.68;829552;71;32596;-88
2021/04/22 19:31:27;;;;;;;6.65;6.00;;;;;;;13.68;48.29;94627.17;828977;71;32665;-87
2021/04/22 19:46:09;;;;;;;6.28;5.75;;;;;;;13.77;47.95;94645.69;828357;71;30851;-86
2021/04/22 20:01:12;;;;;;;4.92;4.53;;;;;;;14.42;48.68;94660.03;834023;71;30326;-85
2021/04/22 20:16:20;;;;;;;4.45;3.52;;;;;;;14.15;48.40;94660.50;822125;71;30357;-83
2021/04/22 20:31:14;;;;;;;5.72;5.20;;;;;;;14.10;48.95;94633.47;827768;71;32880;-84
2021/04/22 20:46:16;;;;;;;3.90;3.60;;;;;;;14.04;49.52;94619.63;827296;71;32719;-81
2021/04/22 21:01:42;;;;;;;3.90;3.60;;;;;;;14.02;50.23;94616.52;827817;71;30810;-84
2021/04/22 21:16:13;;;;;;;3.70;3.40;;;;;;;13.93;51.25;94615.19;827886;71;32817;-84
2021/04/22 21:31:13;;;;;;;3.92;3.62;;;;;;;13.90;51.31;94607.09;830915;71;30268;-82
2021/04/22 21:46:20;;;;;;;6.42;5.72;;;;;;;13.85;51.86;94604.58;827333;71;32684;-83
2021/04/22 22:01:10;;;;;;;4.08;3.77;;;;;;;13.86;51.42;94594.28;828073;71;30081;-83
2021/04/22 22:16:17;;;;;;;7.85;6.33;;;;;;;13.52;53.92;94600.41;829274;71;32693;-83
2021/04/22 22:31:17;;;;;;;7.15;6.53;;;;;;;13.04;57.62;94589.21;827349;71;32815;-82
2021/04/22 22:46:11;;;;;;;6.53;5.85;;;;;;;12.52;60.48;94592.22;828282;71;30250;-83
2021/04/22 23:01:16;;;;;;;6.40;5.80;;;;;;;12.15;62.27;94567.75;828127;71;32628;-83
2021/04/22 23:16:12;;;;;;;6.47;5.87;;;;;;;11.74;64.46;94560.67;828297;71;30989;-82
2021/04/22 23:31:08;;;;;;;6.08;5.47;;;;;;;11.77;64.30;94571.12;828660;71;29162;-84
2021/04/22 23:46:19;;;;;;;7.03;6.33;;;;;;;11.51;65.15;94550.58;829209;71;31787;-80
